createdAt,value
2019-03-08T00:03:44.004Z,98840.18
2019-03-08T00:08:48.239Z,98828.56
2019-03-08T00:13:52.659Z,98828.56
2019-03-08T00:18:57.034Z,98836.22
2019-03-08T00:24:01.562Z,98829.56
2019-03-08T00:29:06.062Z,98838.14
2019-03-08T00:34:10.797Z,98836.56
2019-03-08T00:39:15.265Z,98845.30
2019-03-08T00:50:15.215Z,98839.41
2019-03-08T00:55:19.696Z,98838.41
2019-03-08T01:00:24.118Z,98838.41
2019-03-08T01:05:30.170Z,98829.41
2019-03-08T01:10:34.595Z,98829.41
2019-03-08T01:15:39.016Z,98823.91
2019-03-08T01:20:43.361Z,98825.91
2019-03-08T01:25:47.595Z,98822.78
2019-03-08T01:30:51.911Z,98830.02
2019-03-08T01:35:56.356Z,98823.06
2019-03-08T01:41:01.626Z,98824.83
2019-03-08T01:46:05.877Z,98819.24
2019-03-08T01:51:10.171Z,98809.31
2019-03-08T01:56:14.327Z,98803.39
2019-03-08T02:01:18.753Z,98809.66
2019-03-08T02:06:23.011Z,98817.55
2019-03-08T02:11:27.218Z,98800.53
2019-03-08T02:16:31.541Z,98807.70
2019-03-08T02:21:36.122Z,98819.61
2019-03-08T02:26:40.503Z,98813.15
2019-03-08T02:31:44.846Z,98794.27
2019-03-08T02:36:49.203Z,98794.34
2019-03-08T02:41:53.450Z,98798.38
2019-03-08T02:46:57.980Z,98790.95
2019-03-08T02:52:02.178Z,98785.34
2019-03-08T02:57:06.530Z,98785.34
2019-03-08T03:02:10.784Z,98766.66
2019-03-08T03:07:15.457Z,98769.14
2019-03-08T03:12:19.727Z,98785.41
2019-03-08T03:17:24.075Z,98786.06
2019-03-08T03:22:28.512Z,98793.28
2019-03-08T03:27:32.686Z,98781.16
2019-03-08T03:32:36.863Z,98790.86
2019-03-08T03:37:41.113Z,98794.70
2019-03-08T03:42:45.504Z,98794.70
2019-03-08T03:47:49.937Z,98798.99
2019-03-08T03:52:54.126Z,98798.99
2019-03-08T03:57:58.219Z,98808.20
2019-03-08T04:03:02.553Z,98794.23
2019-03-08T04:08:06.782Z,98794.23
2019-03-08T04:13:11.057Z,98826.89
2019-03-08T04:18:15.390Z,98814.49
2019-03-08T04:23:19.607Z,98823.56
2019-03-08T04:28:24.029Z,98825.86
2019-03-08T04:33:28.308Z,98821.98
2019-03-08T04:38:32.487Z,98822.83
2019-03-08T04:43:36.864Z,98825.16
2019-03-08T04:48:40.894Z,98835.22
2019-03-08T04:53:45.236Z,98835.77
2019-03-08T04:58:49.399Z,98829.11
2019-03-08T05:03:53.625Z,98819.98
2019-03-08T05:08:57.951Z,98816.27
2019-03-08T05:14:02.303Z,98819.61
2019-03-08T05:19:06.488Z,98840.42
2019-03-08T05:24:10.739Z,98845.45
2019-03-08T05:29:15.117Z,98856.84
2019-03-08T05:34:19.330Z,98843.54
2019-03-08T05:39:23.834Z,98836.78
2019-03-08T05:44:28.145Z,98859.94
2019-03-08T05:49:32.800Z,98859.94
2019-03-08T05:54:37.058Z,98863.56
2019-03-08T05:59:41.368Z,98866.40
2019-03-08T06:04:45.715Z,98895.42
2019-03-08T06:09:49.888Z,98895.42
2019-03-08T06:14:54.196Z,98897.41
2019-03-08T06:19:58.432Z,98880.41
2019-03-08T06:25:03.306Z,98883.73
2019-03-08T06:30:07.610Z,98883.73
2019-03-08T06:35:11.807Z,98898.66
2019-03-08T06:40:16.196Z,98906.72
2019-03-08T06:45:20.567Z,98913.44
2019-03-08T06:50:24.912Z,98914.05
2019-03-08T06:55:29.269Z,98918.08
2019-03-08T07:00:55.416Z,98918.08
2019-03-08T07:05:59.776Z,98953.52
2019-03-08T07:11:04.088Z,98973.67
2019-03-08T07:16:13.016Z,98975.02
2019-03-08T07:21:42.331Z,98975.02
2019-03-08T07:27:14.442Z,99006.92
2019-03-08T07:32:36.524Z,99004.16
2019-03-08T07:38:02.904Z,99037.98
2019-03-08T07:43:41.575Z,99037.98
2019-03-08T07:49:03.605Z,99048.02
2019-03-08T07:54:21.096Z,99070.28
2019-03-08T07:59:34.472Z,99070.28
2019-03-08T08:05:03.509Z,99109.87
2019-03-08T08:10:29.770Z,99135.73
2019-03-08T08:16:08.411Z,99145.30
2019-03-08T08:21:37.334Z,99175.20
2019-03-08T08:26:50.749Z,99177.87
2019-03-08T08:32:14.047Z,99167.78
2019-03-08T08:37:32.128Z,99185.87
2019-03-08T08:42:46.805Z,99204.55
2019-03-08T08:48:25.340Z,99209.48
2019-03-08T08:53:47.413Z,99233.42
2019-03-08T08:58:59.148Z,99242.44
2019-03-08T09:04:12.820Z,99258.35
2019-03-08T09:09:45.026Z,99264.36
2019-03-08T09:14:54.799Z,99272.31
2019-03-08T09:20:08.777Z,99280.38
2019-03-08T09:25:44.530Z,99308.11
2019-03-08T09:31:06.403Z,99307.63
2019-03-08T09:36:35.948Z,99327.91
2019-03-08T09:42:04.839Z,99365.55
2019-03-08T09:47:36.874Z,99371.30
2019-03-08T09:52:50.423Z,99400.24
2019-03-08T09:58:03.264Z,99395.98
2019-03-08T10:03:41.862Z,99395.98
2019-03-08T10:08:58.465Z,99427.48
2019-03-08T10:14:21.190Z,99424.70
2019-03-08T10:25:30.121Z,99450.83
2019-03-08T10:30:51.975Z,99436.30
2019-03-08T10:36:15.225Z,99436.30
2019-03-08T10:41:26.252Z,99449.98
2019-03-08T10:46:57.674Z,99456.21
2019-03-08T10:52:35.936Z,99453.78
2019-03-08T10:57:48.649Z,99470.41
2019-03-08T11:03:08.104Z,99480.31
2019-03-08T11:08:29.591Z,99481.16
2019-03-08T11:13:57.340Z,99471.84
2019-03-08T11:19:23.605Z,99471.84
2019-03-08T11:24:42.834Z,99494.25
2019-03-08T11:30:24.480Z,99516.48
2019-03-08T11:35:33.435Z,99519.67
2019-03-08T11:41:05.704Z,99519.67
2019-03-08T11:46:30.231Z,99520.16
2019-03-08T11:52:02.681Z,99516.62
2019-03-08T11:57:24.562Z,99513.55
2019-03-08T12:02:47.732Z,99509.50
2019-03-08T12:08:16.568Z,99516.13
2019-03-08T12:13:27.984Z,99517.48
2019-03-08T12:19:00.575Z,99516.22
2019-03-08T12:24:18.821Z,99534.97
2019-03-08T12:29:40.673Z,99546.58
2019-03-08T12:35:02.437Z,99583.48
2019-03-08T12:40:31.434Z,99583.48
2019-03-08T12:45:47.011Z,99579.22
2019-03-08T12:51:16.061Z,99594.26
2019-03-08T12:56:30.633Z,99597.45
2019-03-08T13:01:51.157Z,99588.39
2019-03-08T13:07:09.570Z,99612.02
2019-03-08T13:12:13.843Z,99616.78
2019-03-08T13:17:18.198Z,99604.08
2019-03-08T13:22:22.480Z,99611.77
2019-03-08T13:27:26.844Z,99628.05
2019-03-08T13:32:31.451Z,99662.88
2019-03-08T13:37:35.581Z,99676.61
2019-03-08T13:42:39.812Z,99676.61
2019-03-08T13:47:43.965Z,99647.12
2019-03-08T13:52:48.112Z,99647.12
2019-03-08T13:57:52.388Z,99675.51
2019-03-08T14:02:56.543Z,99676.77
2019-03-08T14:08:00.717Z,99689.88
2019-03-08T14:13:07.392Z,99688.66
2019-03-08T14:18:12.203Z,99697.09
2019-03-08T14:23:16.474Z,99710.82
2019-03-08T14:28:20.960Z,99715.04
2019-03-08T14:33:25.159Z,99728.05
2019-03-08T14:43:55.544Z,99744.06
2019-03-08T14:48:59.896Z,99744.33
2019-03-08T14:54:06.034Z,99740.02
2019-03-08T14:59:11.132Z,99749.49
2019-03-08T15:04:16.294Z,99750.70
2019-03-08T15:09:20.548Z,99771.75
2019-03-08T15:14:24.859Z,99774.08
2019-03-08T15:19:29.267Z,99776.41
2019-03-08T15:25:39.581Z,99763.98
2019-03-08T15:29:54.743Z,99787.55
2019-03-08T15:35:00.000Z,99798.91
2019-03-08T15:40:04.979Z,99802.34
2019-03-08T15:45:09.761Z,99803.71
2019-03-08T16:34:03.978Z,99847.42
2019-03-08T16:46:35.727Z,99860.29
2019-03-08T16:52:04.766Z,99852.53
2019-03-08T16:58:38.892Z,99867.23
2019-03-08T17:03:51.469Z,99882.81
2019-03-08T17:09:24.536Z,99896.36
2019-03-08T17:25:12.455Z,99941.39
2019-03-08T17:30:32.703Z,99941.39
2019-03-08T17:35:53.914Z,99933.17
2019-03-08T17:41:16.186Z,99956.72
2019-03-08T17:46:29.761Z,99961.13
2019-03-08T17:51:44.711Z,99968.73
2019-03-08T17:57:13.929Z,99968.73
2019-03-08T18:02:43.077Z,99974.62
2019-03-08T18:08:03.149Z,99978.66
2019-03-08T18:13:25.133Z,99990.30
2019-03-08T18:18:48.384Z,99985.16
2019-03-08T18:24:03.128Z,99995.23
2019-03-08T18:29:20.797Z,99995.63
2019-03-08T18:34:35.349Z,99995.72
2019-03-08T18:39:47.567Z,99996.45
2019-03-08T18:45:10.882Z,99996.45
2019-03-08T18:50:46.340Z,100004.44
2019-03-08T18:56:22.092Z,100025.25
2019-03-08T19:01:44.602Z,100006.62
2019-03-08T19:07:10.310Z,100027.95
2019-03-08T19:12:33.512Z,100027.60
2019-03-08T19:18:11.494Z,100024.09
2019-03-08T20:12:33.508Z,100041.94
2019-03-08T20:18:49.706Z,100038.95
2019-03-08T20:24:08.803Z,100042.34
2019-03-08T20:41:51.367Z,100042.77
2019-03-08T21:14:20.543Z,100046.65
2019-03-08T21:19:24.745Z,100055.59
2019-03-08T21:24:29.106Z,100055.59
2019-03-08T21:29:33.380Z,100039.64
2019-03-08T21:34:37.938Z,100026.66
2019-03-08T21:39:42.414Z,100028.00
2019-03-08T21:44:46.793Z,100025.59
2019-03-08T21:49:51.231Z,100021.05
2019-03-08T21:54:55.585Z,100011.26
2019-03-08T21:59:59.957Z,100011.26
2019-03-08T22:05:04.478Z,100004.25
2019-03-08T22:10:27.916Z,100000.09
2019-03-08T22:15:32.246Z,99994.94
2019-03-08T22:20:36.551Z,99984.38
2019-03-08T22:25:41.158Z,99977.28
2019-03-08T22:30:45.622Z,99977.28
2019-03-08T22:35:50.152Z,99972.14
2019-03-08T22:40:54.484Z,99967.61
2019-03-08T22:45:58.823Z,99959.38
2019-03-08T22:51:04.314Z,99961.71
2019-03-08T22:56:08.637Z,99955.00
2019-03-08T23:01:16.837Z,99944.57
2019-03-08T23:06:21.087Z,99936.00
2019-03-08T23:11:25.541Z,99923.86
2019-03-08T23:16:30.030Z,99927.67
2019-03-08T23:21:34.494Z,99927.67
2019-03-08T23:26:56.353Z,99901.80
2019-03-08T23:32:06.213Z,99901.80
2019-03-08T23:37:10.844Z,99913.94
2019-03-08T23:42:15.215Z,99909.41
2019-03-08T23:47:19.828Z,99901.22
2019-03-08T23:52:24.170Z,99901.22
2019-03-08T23:57:28.459Z,99892.16
